Port Hardy Airport
CYZT : now visible

Airfield :











YOU CAN JOIN US ON...

 
LOGIN :

Register | Disclaimer

   EN    FR    IT 

 









Legend :    VFR   Marginal VFR   IFR   Intensive IFR   Very Intensive IFR
Visi :
Ceiling :
>= 8 km
>= 3000ft
5 to 8 km
1000 to 3000 ft
1500m to 5 km
500 to 1000 ft
800 to 1500m
200 to 500 ft
< 800m
< 200 ft
Symbols :   Thunderstorms  Fog  Heavy snow  Heavy precipitations  Wind > 20 kt






- Airport Elevation : 71 ft
- IATA code : YZT


CYZT - Port Hardy

CURRENT METAR :
  • 250200Z 21002KT 20SM FEW030 OVC067 15/13 A3024 RMK SC1AC7 SLP244

EXPIRED METARs :
  • 250100Z 00000KT 20SM FEW025 BKN043 BKN068 14/13 A3025 RMK CF1SC5AC2 CF TR SLP245
  • 250000Z 04004KT 20SM FEW025 BKN038 BKN050 BKN070 14/13 A3025 RMK CF1SC4SC1AC1 SLP246

TAF TAF CYZT
Valid from the 25 at 01:00 until the 25 at 13:00 UTC


250040Z 2501/2513 VRB03KT P6SM OVC030
TEMPO 2501/2513 5SM -DZ BR OVC020
PROB30 2511/2513 1SM -DZ BR OVC006 RMK NXT FCST BY 250700Z
CZVR FIR / North America



MET'MAP, your aeronautical weather chart ! - Copyright ORBIFLY December 2007 - Disclaimer

ORBIFLY MET'MAP TEAM :

Programming & Development : Alexandra Zaïnal
Original concept : Baudouin d'Aumeries
Technical & hardware support : Manuel Goepfert
Assistance : Marc-Olivier Méhu




SOURCES & CREDITS :

   NOAA       Earth
Advisory